Time;durP1;ratioP1;P1;durP2;ratioP2;P2;SDS_P1;SDS_P2;PMS_P1;PMS_P2;Temp;Humidity;BMP_temperature;BMP_pressure;BME280_temperature;BME280_humidity;BME280_pressure;Samples;Min_cycle;Max_cycle;Signal;HPM_P1;HPM_P2
2022/11/02 00:00:50;;;;;;;10.65;3.85;;;;;;;5.78;100.00;97927.44;5046158;28;20048;-56
2022/11/02 00:03:16;;;;;;;9.95;3.40;;;;;;;5.78;100.00;97932.03;5051453;28;20071;-54
2022/11/02 00:05:43;;;;;;;8.32;3.88;;;;;;;5.73;100.00;97941.53;5066847;28;20071;-56
2022/11/02 00:08:10;;;;;;;8.38;3.83;;;;;;;5.64;100.00;97936.56;5066454;28;20040;-56
2022/11/02 00:10:36;;;;;;;8.07;3.70;;;;;;;5.59;100.00;97937.16;5064254;28;20407;-58
2022/11/02 00:13:03;;;;;;;10.23;3.70;;;;;;;5.53;100.00;97940.69;5066391;28;20551;-56
2022/11/02 00:15:33;;;;;;;7.60;3.67;;;;;;;5.55;100.00;97939.44;5066054;28;20512;-56
2022/11/02 00:18:06;;;;;;;6.82;3.92;;;;;;;5.53;100.00;97943.38;5065923;28;20131;-56
2022/11/02 00:20:36;;;;;;;9.80;3.88;;;;;;;5.50;100.00;97939.25;5065389;28;20044;-57
2022/11/02 00:23:06;;;;;;;10.48;3.72;;;;;;;5.59;100.00;97946.06;5066166;28;20067;-58
2022/11/02 00:25:33;;;;;;;7.03;3.08;;;;;;;5.61;100.00;97943.16;5046052;28;20049;-58
2022/11/02 00:28:00;;;;;;;6.95;3.15;;;;;;;5.60;100.00;97944.19;5046665;28;20049;-58
2022/11/02 00:30:26;;;;;;;7.53;2.78;;;;;;;5.53;100.00;97936.13;5046066;28;20216;-56
2022/11/02 00:32:53;;;;;;;10.65;3.33;;;;;;;5.50;100.00;97939.25;5045894;28;20041;-58
2022/11/02 00:35:19;;;;;;;9.77;3.65;;;;;;;5.51;100.00;97938.19;5045206;28;20077;-56
2022/11/02 00:37:45;;;;;;;8.15;3.10;;;;;;;5.56;100.00;97948.31;5046150;28;20136;-56
2022/11/02 00:40:12;;;;;;;8.40;3.45;;;;;;;5.46;100.00;97946.06;5045848;28;20079;-57
2022/11/02 00:42:39;;;;;;;7.97;3.95;;;;;;;5.37;100.00;97950.78;5055826;28;20080;-58
2022/11/02 00:45:06;;;;;;;11.02;3.35;;;;;;;5.37;100.00;97958.84;5066411;28;20044;-57
2022/11/02 00:47:33;;;;;;;11.63;3.63;;;;;;;5.40;100.00;97957.59;5063850;28;20135;-58
2022/11/02 00:49:59;;;;;;;8.23;3.53;;;;;;;5.43;100.00;97965.25;5062124;28;20049;-57
2022/11/02 00:52:26;;;;;;;8.20;2.97;;;;;;;5.45;100.00;97957.81;5064603;28;20040;-58
2022/11/02 00:54:53;;;;;;;7.57;2.92;;;;;;;5.51;100.00;97956.16;5047334;28;20098;-58
2022/11/02 00:57:19;;;;;;;10.63;3.40;;;;;;;5.51;100.00;97957.00;5066190;28;20068;-57
2022/11/02 00:59:46;;;;;;;15.02;3.05;;;;;;;5.52;100.00;97957.81;5064299;28;20535;-57
2022/11/02 01:02:14;;;;;;;8.07;3.20;;;;;;;5.51;100.00;97957.00;5064274;28;20127;-58
2022/11/02 01:04:41;;;;;;;8.27;2.60;;;;;;;5.53;100.00;97956.81;5066107;28;20050;-58
2022/11/02 01:07:08;;;;;;;5.97;2.80;;;;;;;5.52;100.00;97950.59;5065872;28;20072;-56
2022/11/02 01:09:35;;;;;;;6.55;2.83;;;;;;;5.54;100.00;97959.28;5065527;28;20079;-58
2022/11/02 01:12:01;;;;;;;7.20;3.08;;;;;;;5.47;100.00;97951.22;5053928;28;20041;-58
2022/11/02 01:14:28;;;;;;;5.97;2.67;;;;;;;5.43;100.00;97954.50;5064880;28;20474;-58
2022/11/02 01:16:56;;;;;;;7.95;2.53;;;;;;;5.46;100.00;97954.09;5065535;28;20048;-57
2022/11/02 01:19:24;;;;;;;6.70;3.05;;;;;;;5.32;100.00;97956.78;5066027;28;20131;-57
2022/11/02 01:21:50;;;;;;;7.05;2.65;;;;;;;5.41;100.00;97953.88;5065276;28;20061;-58
2022/11/02 01:24:17;;;;;;;5.05;2.50;;;;;;;5.49;100.00;97950.19;5054759;28;20432;-57
2022/11/02 01:26:43;;;;;;;7.75;2.47;;;;;;;5.62;100.00;97943.97;5045967;28;20064;-57
2022/11/02 01:29:10;;;;;;;5.13;2.70;;;;;;;5.44;100.00;97948.09;5045676;28;20451;-57
2022/11/02 01:31:36;;;;;;;4.38;2.05;;;;;;;5.43;100.00;97944.59;5048628;28;20064;-59
2022/11/02 01:34:03;;;;;;;3.95;2.42;;;;;;;5.34;100.00;97953.84;5049591;28;20049;-58
2022/11/02 01:36:29;;;;;;;5.80;2.03;;;;;;;5.31;100.00;97955.09;5049723;28;20123;-58
2022/11/02 01:38:56;;;;;;;8.35;2.33;;;;;;;5.39;100.00;97950.56;5050173;28;20494;-59
2022/11/02 01:41:22;;;;;;;6.13;2.45;;;;;;;5.36;100.00;97949.13;5049656;28;20080;-58
2022/11/02 01:43:53;;;;;;;5.45;1.92;;;;;;;5.46;100.00;97946.06;5069746;28;20064;-58
2022/11/02 01:46:27;;;;;;;9.77;2.38;;;;;;;5.39;100.00;97932.63;5069107;28;20068;-57
2022/11/02 01:49:05;;;;;;;5.63;1.95;;;;;;;5.36;100.00;97924.13;5069477;28;20067;-57
2022/11/02 01:51:39;;;;;;;7.03;1.98;;;;;;;5.34;100.00;97919.78;5067437;28;20047;-59
2022/11/02 01:54:21;;;;;;;3.80;1.90;;;;;;;5.34;100.00;97927.84;5063158;28;20214;-59
2022/11/02 01:56:51;;;;;;;5.45;2.25;;;;;;;5.34;100.00;97914.41;5069151;28;20047;-56
2022/11/02 01:59:27;;;;;;;6.13;1.95;;;;;;;5.37;100.00;97912.34;5068050;28;20131;-59
2022/11/02 02:01:54;;;;;;;4.85;2.30;;;;;;;5.38;100.00;97912.13;5057920;28;20515;-58
2022/11/02 02:04:22;;;;;;;4.43;2.08;;;;;;;5.38;100.00;97914.81;5050379;28;20045;-59
2022/11/02 02:06:49;;;;;;;5.45;2.63;;;;;;;5.43;100.00;97904.31;5047877;28;20045;-59
2022/11/02 02:09:19;;;;;;;5.32;2.28;;;;;;;5.50;100.00;97907.00;5056799;28;20046;-57
2022/11/02 02:11:46;;;;;;;4.45;2.17;;;;;;;5.51;100.00;97897.91;5066813;28;20049;-57
2022/11/02 02:14:16;;;;;;;4.60;1.80;;;;;;;5.53;100.00;97892.34;5067438;28;20265;-57
2022/11/02 02:17:12;;;;;;;6.47;2.30;;;;;;;5.60;100.00;97893.97;5067569;28;20052;-58
2022/11/02 02:20:01;;;;;;;5.30;2.00;;;;;;;5.65;100.00;97895.22;5067238;28;20044;-57
2022/11/02 02:22:49;;;;;;;7.10;2.78;;;;;;;5.72;100.00;97898.75;5068251;28;20495;-58
2022/11/02 02:25:34;;;;;;;7.55;2.33;;;;;;;5.70;100.00;97893.56;5050245;28;20044;-58
2022/11/02 02:28:18;;;;;;;10.38;2.25;;;;;;;5.67;100.00;97893.97;5066822;28;20119;-58
2022/11/02 02:30:59;;;;;;;7.07;2.40;;;;;;;5.68;100.00;97898.31;5066546;28;20110;-58
2022/11/02 02:33:34;;;;;;;6.50;2.03;;;;;;;5.77;100.00;97896.25;5068636;28;20515;-57
2022/11/02 02:36:12;;;;;;;6.50;2.63;;;;;;;5.91;100.00;97898.91;5067753;28;20040;-59
2022/11/02 02:38:47;;;;;;;6.20;2.40;;;;;;;5.99;100.00;97888.78;5067009;28;20094;-59
2022/11/02 02:41:27;;;;;;;4.90;2.03;;;;;;;6.12;100.00;97892.53;5065904;28;20090;-59
2022/11/02 02:43:56;;;;;;;7.35;2.53;;;;;;;6.33;100.00;97906.72;5053773;28;20048;-58
2022/11/02 02:46:39;;;;;;;8.88;2.53;;;;;;;6.55;100.00;97901.91;5068649;28;20128;-59
2022/11/02 02:49:13;;;;;;;5.05;2.10;;;;;;;6.60;100.00;97891.31;5068243;28;20068;-59
2022/11/02 02:51:42;;;;;;;5.43;1.67;;;;;;;6.46;100.00;97887.88;5065313;28;20036;-58
2022/11/02 02:54:18;;;;;;;6.50;2.13;;;;;;;6.53;100.00;97885.16;5065900;28;20150;-59
2022/11/02 02:56:55;;;;;;;5.28;1.83;;;;;;;6.60;100.00;97877.84;5068077;28;20068;-56
2022/11/02 02:59:26;;;;;;;6.30;1.73;;;;;;;6.68;100.00;97881.34;5059735;28;20244;-58
2022/11/02 03:01:55;;;;;;;5.35;2.17;;;;;;;6.84;100.00;97878.19;5065066;28;20041;-58
2022/11/02 03:04:23;;;;;;;6.03;1.95;;;;;;;6.86;100.00;97878.78;5066490;28;20071;-56
2022/11/02 03:06:57;;;;;;;5.85;1.77;;;;;;;6.82;100.00;97880.25;5067312;28;20144;-58
2022/11/02 03:09:29;;;;;;;6.97;1.70;;;;;;;6.64;100.00;97881.78;5066805;28;20055;-59
2022/11/02 03:12:29;;;;;;;9.00;2.08;;;;;;;6.75;100.00;97882.16;5066424;28;20055;-58
2022/11/02 03:15:15;;;;;;;5.22;2.00;;;;;;;6.85;100.00;97887.06;5064873;28;20040;-55
2022/11/02 03:17:51;;;;;;;4.68;1.92;;;;;;;6.97;100.00;97889.91;5065552;28;20075;-58
2022/11/02 03:20:28;;;;;;;7.95;2.03;;;;;;;7.05;100.00;97888.81;5065794;28;20044;-58
2022/11/02 03:23:20;;;;;;;7.55;2.20;;;;;;;7.18;100.00;97893.31;5066752;28;20515;-56
2022/11/02 03:25:53;;;;;;;5.80;1.88;;;;;;;7.34;100.00;97879.31;5046415;28;20037;-59
2022/11/02 03:28:41;;;;;;;4.97;1.65;;;;;;;7.31;100.00;97870.84;5062359;28;20048;-59
2022/11/02 03:31:26;;;;;;;5.38;2.38;;;;;;;7.34;100.00;97878.50;5046751;28;20041;-59
2022/11/02 03:34:14;;;;;;;6.93;2.08;;;;;;;7.51;100.00;97885.00;5046121;28;20131;-59
2022/11/02 03:36:47;;;;;;;8.00;2.00;;;;;;;7.50;100.00;97885.22;5045803;28;20444;-59
2022/11/02 03:39:19;;;;;;;7.43;1.92;;;;;;;7.50;100.00;97886.03;5047308;28;20124;-58
2022/11/02 03:41:49;;;;;;;6.55;1.80;;;;;;;7.47;100.00;97891.88;5049110;28;20051;-58
2022/11/02 03:44:22;;;;;;;7.53;2.33;;;;;;;7.45;100.00;97888.56;5065565;28;20465;-59
2022/11/02 03:46:52;;;;;;;9.43;2.53;;;;;;;7.46;100.00;97897.47;5064799;28;20037;-59
2022/11/02 03:49:22;;;;;;;7.90;1.90;;;;;;;7.38;100.00;97899.38;5063003;28;20048;-57
2022/11/02 03:51:50;;;;;;;7.00;1.90;;;;;;;7.30;100.00;97899.66;5044639;28;20658;-59
2022/11/02 03:54:34;;;;;;;6.47;2.13;;;;;;;7.26;100.00;97904.66;5046872;28;20044;-59
2022/11/02 03:57:04;;;;;;;6.03;1.90;;;;;;;7.25;100.00;97908.38;5045514;28;20455;-59
2022/11/02 03:59:36;;;;;;;4.05;1.40;;;;;;;7.39;100.00;97906.44;5045098;28;20174;-58
2022/11/02 04:02:02;;;;;;;7.72;2.35;;;;;;;7.41;100.00;97901.63;5046186;28;20040;-58
2022/11/02 04:04:29;;;;;;;3.97;2.08;;;;;;;7.47;100.00;97904.50;5061897;28;20045;-59
2022/11/02 04:06:56;;;;;;;6.07;1.85;;;;;;;7.65;100.00;97912.66;5066668;28;20049;-59
2022/11/02 04:09:23;;;;;;;8.98;2.10;;;;;;;7.78;100.00;97898.25;5065411;28;20040;-58
2022/11/02 04:14:39;;;;;;;6.13;1.50;;;;;;;7.77;100.00;97903.84;5082161;28;20510;-59
2022/11/02 04:19:59;;;;;;;4.55;1.65;;;;;;;7.78;100.00;97903.63;5064801;28;20040;-57
2022/11/02 04:25:17;;;;;;;8.70;2.40;;;;;;;7.90;100.00;97903.75;5063948;28;20088;-58
2022/11/02 04:27:53;;;;;;;4.38;1.83;;;;;;;7.84;100.00;97907.31;5044825;28;20080;-58
2022/11/02 04:30:25;;;;;;;10.18;1.70;;;;;;;7.88;100.00;97916.63;5046163;28;20065;-57
2022/11/02 04:35:46;;;;;;;4.25;1.60;;;;;;;7.97;100.00;97910.94;5045012;28;20095;-58
2022/11/02 04:43:47;;;;;;;7.35;1.80;;;;;;;7.98;100.00;97917.97;5056840;28;20504;-59
2022/11/02 04:46:15;;;;;;;3.10;1.42;;;;;;;7.93;100.00;97927.56;5065028;28;20051;-58
2022/11/02 04:48:43;;;;;;;4.10;1.80;;;;;;;7.92;100.00;97923.22;5064625;28;20041;-58
2022/11/02 04:51:10;;;;;;;5.32;2.15;;;;;;;7.86;100.00;97929.50;5065296;28;20041;-56
2022/11/02 04:53:37;;;;;;;9.45;1.90;;;;;;;7.80;100.00;97922.28;5064910;28;20395;-58
2022/11/02 04:56:07;;;;;;;5.80;1.88;;;;;;;7.71;100.00;97916.38;5064729;28;20098;-58
2022/11/02 04:58:34;;;;;;;4.50;1.60;;;;;;;7.65;100.00;97928.00;5064672;28;20646;-57
2022/11/02 05:01:13;;;;;;;5.55;1.70;;;;;;;7.62;100.00;97928.44;5063868;28;20504;-59
2022/11/02 05:03:41;;;;;;;5.57;1.77;;;;;;;7.53;100.00;97926.00;5061525;28;20065;-59
2022/11/02 05:06:10;;;;;;;3.35;1.58;;;;;;;7.46;100.00;97932.50;5059799;28;20037;-59
2022/11/02 05:08:36;;;;;;;3.80;1.45;;;;;;;7.48;100.00;97927.72;5060504;28;20047;-59
2022/11/02 05:11:04;;;;;;;5.50;2.10;;;;;;;7.39;100.00;97933.38;5059110;28;20029;-59
2022/11/02 05:13:31;;;;;;;5.72;1.92;;;;;;;7.39;100.00;97936.06;5058862;28;20140;-57
2022/11/02 05:15:59;;;;;;;5.13;1.80;;;;;;;7.37;100.00;97940.03;5058988;28;20131;-58
2022/11/02 05:18:28;;;;;;;4.03;1.50;;;;;;;7.39;100.00;97938.75;5067092;28;20435;-58
2022/11/02 05:21:00;;;;;;;9.95;1.80;;;;;;;7.37;100.00;97943.53;5056738;28;20041;-59
2022/11/02 05:23:28;;;;;;;6.50;1.77;;;;;;;7.34;100.00;97941.25;5065839;28;20040;-58
2022/11/02 05:26:04;;;;;;;8.90;2.03;;;;;;;7.34;100.00;97943.16;5065842;28;20052;-57
2022/11/02 05:28:33;;;;;;;6.82;1.55;;;;;;;7.44;100.00;97948.88;5064888;28;20052;-57
2022/11/02 05:31:02;;;;;;;10.50;2.20;;;;;;;7.13;100.00;97943.28;5059317;28;20095;-58
2022/11/02 05:33:31;;;;;;;6.07;1.67;;;;;;;6.93;100.00;97945.22;5054416;28;20037;-55
2022/11/02 05:36:03;;;;;;;6.60;1.85;;;;;;;7.01;100.00;97945.00;5047937;28;20072;-56
2022/11/02 05:38:32;;;;;;;7.60;1.95;;;;;;;7.12;100.00;97954.25;5064997;28;20060;-58
2022/11/02 05:41:00;;;;;;;8.95;2.17;;;;;;;7.17;100.00;97959.81;5064871;28;20679;-59
2022/11/02 05:43:31;;;;;;;;;;;;;;;7.31;100.00;97959.75;5052917;28;20040;-59
2022/11/02 05:46:01;;;;;;;4.32;1.50;;;;;;;7.19;100.00;97963.09;5068172;28;20007;-59
2022/11/02 05:48:31;;;;;;;5.10;1.88;;;;;;;7.18;100.00;97960.66;5069336;28;20101;-59
2022/11/02 05:51:00;;;;;;;4.32;1.50;;;;;;;7.35;100.00;97964.50;5068563;28;20080;-58
2022/11/02 05:53:31;;;;;;;7.38;1.75;;;;;;;7.64;100.00;97964.94;5066732;28;20044;-58
2022/11/02 05:55:59;;;;;;;7.33;2.07;;;;;;;7.76;100.00;97966.91;5068730;28;20045;-59
2022/11/02 05:58:26;;;;;;;6.25;1.70;;;;;;;7.79;100.00;97967.31;5068313;28;20337;-59
2022/11/02 06:00:53;;;;;;;6.85;1.70;;;;;;;7.85;100.00;97970.97;5068298;28;20061;-59
2022/11/02 06:03:19;;;;;;;6.03;1.92;;;;;;;7.92;100.00;97979.00;5067847;28;20068;-59
2022/11/02 06:05:46;;;;;;;6.00;1.58;;;;;;;8.06;100.00;97974.34;5066040;28;20053;-58
2022/11/02 06:08:12;;;;;;;10.35;1.60;;;;;;;8.11;100.00;97979.09;5066970;28;20055;-58
2022/11/02 06:10:42;;;;;;;4.72;1.70;;;;;;;8.16;100.00;97982.78;5056685;28;20450;-59
2022/11/02 06:13:08;;;;;;;4.95;1.30;;;;;;;8.23;100.00;97982.72;5063037;28;20072;-58
2022/11/02 06:15:35;;;;;;;3.58;1.50;;;;;;;8.23;100.00;97988.09;5064236;28;20064;-58
2022/11/02 06:18:01;;;;;;;10.43;2.22;;;;;;;8.22;100.00;97991.03;5065862;28;20642;-57
2022/11/02 06:20:28;;;;;;;9.10;2.00;;;;;;;8.26;100.00;97992.22;5065164;28;20123;-58
2022/11/02 06:22:54;;;;;;;6.97;1.92;;;;;;;8.30;100.00;97996.13;5065839;28;20067;-58
2022/11/02 06:25:21;;;;;;;8.50;2.00;;;;;;;8.38;100.00;98001.25;5064135;28;20045;-56
2022/11/02 06:27:55;;;;;;;5.22;1.67;;;;;;;8.42;100.00;98005.16;5057961;28;20683;-57
2022/11/02 06:30:25;;;;;;;4.35;1.20;;;;;;;8.56;100.00;98003.16;5062566;28;20556;-59
2022/11/02 06:32:53;;;;;;;6.05;1.73;;;;;;;8.76;100.00;98022.91;5053946;28;20045;-58
2022/11/02 06:35:21;;;;;;;6.65;1.50;;;;;;;8.86;100.00;98023.22;5056643;28;20045;-58
2022/11/02 06:37:48;;;;;;;9.00;1.80;;;;;;;8.91;100.00;98026.06;5066490;28;20508;-58
2022/11/02 06:40:15;;;;;;;6.40;1.63;;;;;;;8.90;100.00;98029.00;5065815;28;20475;-58
2022/11/02 06:42:41;;;;;;;6.72;1.52;;;;;;;8.83;100.00;98029.91;5060934;28;20195;-58
2022/11/02 06:45:16;;;;;;;4.97;1.40;;;;;;;8.78;100.00;98028.91;5054026;28;20048;-58
2022/11/02 06:47:42;;;;;;;5.78;1.90;;;;;;;8.71;100.00;98037.09;5054249;28;20466;-58
2022/11/02 06:50:09;;;;;;;9.75;2.58;;;;;;;8.70;100.00;98041.66;5051954;28;20128;-59
2022/11/02 06:52:42;;;;;;;6.28;1.83;;;;;;;8.65;100.00;98036.09;5054661;28;20068;-58
2022/11/02 06:55:08;;;;;;;7.38;1.50;;;;;;;8.67;100.00;98041.28;5048839;28;20064;-58
2022/11/02 06:57:36;;;;;;;6.32;1.70;;;;;;;8.68;100.00;98049.16;5054304;28;20045;-58
2022/11/02 07:00:04;;;;;;;4.60;1.27;;;;;;;8.69;100.00;98049.97;5053873;28;20032;-57
2022/11/02 07:02:31;;;;;;;6.47;1.42;;;;;;;8.75;100.00;98065.31;5059447;28;20045;-57
2022/11/02 07:04:58;;;;;;;7.65;1.77;;;;;;;8.82;100.00;98063.34;5066046;28;20412;-59
2022/11/02 07:07:25;;;;;;;9.85;1.88;;;;;;;8.83;100.00;98058.78;5056022;28;20553;-57
2022/11/02 07:09:51;;;;;;;8.20;1.65;;;;;;;8.88;100.00;98064.31;5060516;28;20072;-58
2022/11/02 07:12:18;;;;;;;4.53;1.52;;;;;;;8.94;100.00;98068.00;5066999;28;20128;-57
2022/11/02 07:14:48;;;;;;;6.53;1.87;;;;;;;8.97;100.00;98073.81;5062112;28;20101;-57
2022/11/02 07:17:15;;;;;;;5.63;1.35;;;;;;;9.05;100.00;98074.53;5065564;28;20757;-57
2022/11/02 07:19:42;;;;;;;7.57;2.00;;;;;;;9.19;100.00;98077.94;5063644;28;20123;-59
2022/11/02 07:22:08;;;;;;;5.25;2.03;;;;;;;9.22;100.00;98077.47;5064093;28;20052;-60
2022/11/02 07:24:34;;;;;;;7.13;2.00;;;;;;;9.33;100.00;98086.72;5050268;28;20045;-59
2022/11/02 07:27:01;;;;;;;5.75;1.92;;;;;;;9.34;100.00;98086.50;5061490;28;20405;-59
2022/11/02 07:29:28;;;;;;;7.55;1.90;;;;;;;9.37;100.00;98091.41;5064457;28;20137;-58
2022/11/02 07:31:54;;;;;;;7.07;1.60;;;;;;;9.44;100.00;98096.75;5064726;28;20045;-58
2022/11/02 07:34:21;;;;;;;8.43;1.70;;;;;;;9.53;100.00;98099.13;5064674;28;20052;-59
2022/11/02 07:36:47;;;;;;;5.80;1.50;;;;;;;9.59;100.00;98103.66;5065985;28;20242;-59
2022/11/02 07:39:14;;;;;;;12.05;2.22;;;;;;;9.60;100.00;98108.84;5060991;28;20120;-59
2022/11/02 07:41:40;;;;;;;6.45;1.80;;;;;;;9.69;100.00;98101.22;5048995;28;20072;-59
2022/11/02 07:44:07;;;;;;;8.10;1.90;;;;;;;9.83;100.00;98103.75;5066937;28;20052;-57
2022/11/02 07:46:51;;;;;;;4.85;2.50;;;;;;;9.87;100.00;98113.06;5067307;28;20270;-59
2022/11/02 07:49:18;;;;;;;2.85;1.27;;;;;;;10.02;100.00;98110.78;5067263;28;20083;-59
2022/11/02 07:51:47;;;;;;;8.65;1.70;;;;;;;10.23;100.00;98114.00;5065717;28;20051;-59
2022/11/02 07:54:13;;;;;;;8.45;1.98;;;;;;;10.40;100.00;98111.44;5055730;28;20420;-56
2022/11/02 07:56:40;;;;;;;5.60;1.58;;;;;;;10.45;100.00;98113.50;5046940;28;20072;-57
2022/11/02 07:59:09;;;;;;;8.02;1.73;;;;;;;10.48;100.00;98120.31;5046950;28;20091;-58
2022/11/02 08:01:35;;;;;;;2.75;1.17;;;;;;;10.54;100.00;98120.22;5046008;28;20578;-57
2022/11/02 08:04:02;;;;;;;6.68;1.85;;;;;;;10.67;99.52;98126.47;5058561;28;20036;-57
2022/11/02 08:06:29;;;;;;;4.38;1.38;;;;;;;10.79;98.78;98118.34;5066611;28;20097;-58
2022/11/02 08:08:55;;;;;;;8.20;1.38;;;;;;;10.87;97.97;98119.91;5066545;28;20090;-59
2022/11/02 08:11:22;;;;;;;6.28;1.40;;;;;;;10.97;96.39;98128.25;5062938;28;20072;-59
2022/11/02 08:13:48;;;;;;;6.22;1.35;;;;;;;10.89;96.42;98118.59;5066128;28;20051;-59
2022/11/02 08:16:15;;;;;;;8.57;1.30;;;;;;;10.85;98.37;98128.25;5066764;28;20116;-59
2022/11/02 08:18:41;;;;;;;7.97;1.40;;;;;;;11.00;97.53;98118.84;5066466;28;20519;-58
2022/11/02 08:21:08;;;;;;;4.53;1.33;;;;;;;11.05;96.34;98122.47;5066235;28;20124;-59
2022/11/02 08:23:34;;;;;;;6.40;1.35;;;;;;;11.06;98.10;98120.63;5061334;28;20123;-58
2022/11/02 08:26:01;;;;;;;6.35;1.20;;;;;;;11.12;97.35;98129.66;5046907;28;20044;-57
2022/11/02 08:28:31;;;;;;;3.17;1.08;;;;;;;11.15;97.29;98124.59;5046661;28;20136;-57
2022/11/02 08:30:58;;;;;;;4.85;1.35;;;;;;;11.16;97.49;98120.81;5044655;28;20041;-59
2022/11/02 08:33:24;;;;;;;4.57;1.23;;;;;;;11.24;97.14;98129.66;5046458;28;20048;-59
2022/11/02 08:35:52;;;;;;;3.85;1.08;;;;;;;11.30;92.42;98124.13;5046419;28;20080;-58
2022/11/02 08:38:21;;;;;;;6.82;1.02;;;;;;;11.45;92.47;98125.50;5046401;28;20075;-56
2022/11/02 08:40:48;;;;;;;6.20;1.55;;;;;;;11.43;95.13;98131.16;5044646;28;20059;-59
2022/11/02 08:43:14;;;;;;;3.55;1.10;;;;;;;11.40;95.08;98128.94;5062554;28;20040;-58
2022/11/02 08:45:43;;;;;;;4.63;1.08;;;;;;;11.49;94.99;98128.53;5066245;28;20646;-58
2022/11/02 08:48:30;;;;;;;4.95;1.83;;;;;;;11.48;94.42;98126.91;5053935;28;20045;-56
2022/11/02 08:50:57;;;;;;;5.50;1.35;;;;;;;11.63;90.72;98131.81;5057464;28;20124;-56
2022/11/02 08:53:23;;;;;;;4.15;0.75;;;;;;;11.70;90.17;98127.91;5060158;28;20587;-57
2022/11/02 08:55:50;;;;;;;7.40;1.13;;;;;;;11.71;90.51;98129.56;5059952;28;20524;-57
2022/11/02 08:58:17;;;;;;;5.75;1.23;;;;;;;11.65;92.10;98118.84;5064231;28;20052;-59
2022/11/02 09:00:44;;;;;;;3.45;1.05;;;;;;;11.78;90.96;98124.00;5062469;28;20047;-59
2022/11/02 09:03:12;;;;;;;4.75;1.10;;;;;;;11.91;92.50;98122.88;5059946;28;20041;-57
2022/11/02 09:05:44;;;;;;;12.10;1.65;;;;;;;11.90;91.25;98128.56;5060899;28;20055;-57
2022/11/02 09:08:17;;;;;;;5.07;0.70;;;;;;;12.03;89.12;98128.28;5064186;28;20048;-58
2022/11/02 09:10:46;;;;;;;8.73;1.10;;;;;;;12.04;86.50;98123.66;5063336;28;20249;-58
2022/11/02 09:13:14;;;;;;;5.95;1.42;;;;;;;12.02;89.78;98126.59;5064112;28;20044;-57
2022/11/02 09:15:41;;;;;;;6.55;0.93;;;;;;;11.90;87.60;98112.28;5063684;28;20423;-57
2022/11/02 09:18:07;;;;;;;7.35;1.00;;;;;;;11.92;85.72;98116.41;5064143;28;20094;-58
2022/11/02 09:20:35;;;;;;;6.68;1.40;;;;;;;11.96;83.90;98114.00;5060266;28;20934;-56
2022/11/02 09:23:01;;;;;;;5.38;1.10;;;;;;;11.96;83.37;98120.28;5056326;28;20037;-57
2022/11/02 09:25:28;;;;;;;7.45;1.95;;;;;;;12.04;82.82;98121.75;5063547;28;20053;-58
2022/11/02 09:27:56;;;;;;;7.53;0.95;;;;;;;12.09;82.47;98127.31;5063666;28;20128;-56
2022/11/02 09:30:25;;;;;;;2.60;0.77;;;;;;;11.95;82.90;98131.38;5050063;28;20099;-58
2022/11/02 09:33:05;;;;;;;6.68;1.30;;;;;;;12.00;81.65;98128.75;5063173;28;20040;-57
2022/11/02 09:35:42;;;;;;;8.55;1.60;;;;;;;12.06;82.50;98132.41;5063653;28;20048;-58
2022/11/02 09:38:08;;;;;;;6.30;1.10;;;;;;;12.08;83.39;98138.41;5063730;28;20124;-57
2022/11/02 09:40:47;;;;;;;7.82;1.45;;;;;;;11.91;82.74;98136.44;5063066;28;20076;-59
2022/11/02 09:43:27;;;;;;;8.43;1.52;;;;;;;11.92;83.04;98145.41;5063727;28;20116;-58
2022/11/02 09:46:08;;;;;;;6.53;1.50;;;;;;;11.97;82.97;98138.19;5063287;28;20504;-59
2022/11/02 09:48:48;;;;;;;5.97;1.30;;;;;;;12.06;82.75;98141.38;5063751;28;20127;-59
2022/11/02 09:51:31;;;;;;;6.68;1.30;;;;;;;12.02;82.52;98148.31;5050341;28;20055;-59
2022/11/02 09:54:47;;;;;;;7.68;1.85;;;;;;;11.97;82.30;98148.22;5061608;28;20164;-59
2022/11/02 09:57:20;;;;;;;5.88;1.55;;;;;;;12.07;82.82;98156.59;5047181;28;20060;-59
2022/11/02 09:59:48;;;;;;;3.25;0.98;;;;;;;12.17;82.79;98147.81;5066853;28;20127;-59
2022/11/02 10:02:41;;;;;;;7.82;0.98;;;;;;;12.19;82.36;98147.56;5064980;28;20119;-59
2022/11/02 10:05:28;;;;;;;6.95;1.30;;;;;;;12.18;83.18;98146.75;5066444;28;20047;-57
2022/11/02 10:08:22;;;;;;;7.85;1.25;;;;;;;12.20;80.16;98151.94;5066825;28;20083;-56
2022/11/02 10:11:26;;;;;;;8.45;1.50;;;;;;;12.14;81.83;98142.88;5053882;28;20058;-59
2022/11/02 10:14:04;;;;;;;5.97;1.63;;;;;;;12.03;81.78;98138.28;5066487;28;20112;-58
2022/11/02 10:16:37;;;;;;;6.70;1.10;;;;;;;11.95;78.36;98143.03;5066245;28;20048;-59
2022/11/02 10:19:12;;;;;;;5.40;0.98;;;;;;;11.95;80.07;98134.88;5062823;28;20145;-59
2022/11/02 10:21:43;;;;;;;7.80;1.48;;;;;;;12.02;81.72;98152.94;5060035;28;20471;-59
2022/11/02 10:24:34;;;;;;;6.05;1.08;;;;;;;11.83;81.60;98148.50;5055676;28;20041;-56
2022/11/02 10:27:05;;;;;;;6.50;1.80;;;;;;;11.76;83.43;98149.72;5053442;28;20068;-58
2022/11/02 10:30:10;;;;;;;8.65;1.50;;;;;;;11.80;81.60;98148.19;5066339;28;20709;-58
2022/11/02 10:32:39;;;;;;;7.03;1.40;;;;;;;11.82;84.39;98137.88;5065688;28;20041;-60
2022/11/02 10:35:17;;;;;;;9.15;1.63;;;;;;;11.79;84.15;98141.09;5066186;28;20044;-59
2022/11/02 10:38:41;;;;;;;6.57;1.40;;;;;;;11.82;85.45;98146.88;5066287;28;20051;-59
2022/11/02 10:41:13;;;;;;;10.90;1.35;;;;;;;11.80;85.04;98135.41;5059770;28;20453;-60
2022/11/02 10:44:00;;;;;;;7.57;1.30;;;;;;;11.88;85.58;98142.38;5066417;28;20132;-59
2022/11/02 10:46:57;;;;;;;11.38;1.23;;;;;;;12.03;85.87;98143.72;5066252;28;20145;-60
2022/11/02 10:49:55;;;;;;;8.20;1.50;;;;;;;12.04;85.64;98143.47;5066278;28;20119;-59
2022/11/02 10:52:21;;;;;;;7.55;1.42;;;;;;;11.99;84.41;98126.28;5065102;28;20123;-60
2022/11/02 10:54:51;;;;;;;7.13;1.42;;;;;;;11.96;84.37;98133.00;5060995;28;20047;-60
2022/11/02 10:57:26;;;;;;;8.60;2.00;;;;;;;11.96;84.58;98131.13;5065560;28;20086;-60
2022/11/02 11:00:26;;;;;;;7.30;1.42;;;;;;;11.90;82.00;98132.09;5066032;28;20068;-60
2022/11/02 11:03:09;;;;;;;6.35;1.30;;;;;;;11.92;81.32;98135.41;5053874;28;20045;-59
2022/11/02 11:06:02;;;;;;;4.40;1.55;;;;;;;11.98;83.94;98133.59;5065858;28;20083;-57
2022/11/02 11:08:48;;;;;;;10.13;2.72;;;;;;;12.09;84.11;98124.59;5065399;28;20072;-60
2022/11/02 11:11:23;;;;;;;8.00;1.05;;;;;;;12.18;83.07;98137.78;5065421;28;20040;-59
2022/11/02 11:13:58;;;;;;;4.90;1.20;;;;;;;12.26;81.18;98133.84;5063927;28;20486;-59
2022/11/02 11:16:51;;;;;;;9.70;1.83;;;;;;;12.33;80.18;98129.91;5064669;28;20345;-58
2022/11/02 11:19:31;;;;;;;11.57;2.15;;;;;;;12.37;77.42;98127.53;5064892;28;20047;-59
2022/11/02 11:22:28;;;;;;;6.38;1.52;;;;;;;12.39;78.20;98132.72;5062652;28;20051;-62
2022/11/02 11:25:23;;;;;;;4.95;1.25;;;;;;;12.52;76.95;98139.72;5052871;28;20573;-59
2022/11/02 11:27:57;;;;;;;4.20;0.85;;;;;;;12.61;77.12;98135.53;5063812;28;20056;-59
2022/11/02 11:30:36;;;;;;;10.00;1.60;;;;;;;12.75;75.79;98138.72;5065125;28;20072;-58
2022/11/02 11:33:22;;;;;;;7.75;1.10;;;;;;;12.91;73.33;98134.38;5064701;28;20119;-60
2022/11/02 11:35:50;;;;;;;6.90;1.27;;;;;;;12.90;72.52;98131.91;5064451;28;20342;-58
2022/11/02 11:38:19;;;;;;;10.10;1.63;;;;;;;13.09;72.81;98127.84;5064949;28;20102;-59
2022/11/02 11:40:53;;;;;;;5.88;1.15;;;;;;;13.18;71.71;98120.09;5064578;28;20056;-59
2022/11/02 11:43:23;;;;;;;6.18;1.23;;;;;;;13.18;70.27;98119.25;5062535;28;20072;-58
2022/11/02 11:46:01;;;;;;;8.10;1.45;;;;;;;12.94;70.46;98114.03;5064752;28;20044;-59
2022/11/02 11:48:38;;;;;;;7.53;1.20;;;;;;;12.77;70.63;98108.59;5064755;28;20080;-59
2022/11/02 11:51:31;;;;;;;7.20;1.48;;;;;;;12.71;70.52;98107.69;5063870;28;20123;-59
2022/11/02 11:54:16;;;;;;;3.50;1.05;;;;;;;12.83;72.75;98111.16;5062058;28;20074;-57
2022/11/02 11:56:43;;;;;;;5.22;1.30;;;;;;;12.71;74.08;98110.41;5059563;28;20094;-57
2022/11/02 11:59:26;;;;;;;6.20;1.90;;;;;;;12.85;73.96;98105.47;5064158;28;20119;-56
2022/11/02 12:01:58;;;;;;;6.28;1.58;;;;;;;12.84;73.94;98101.13;5063240;28;20512;-59
2022/11/02 12:04:30;;;;;;;10.13;1.27;;;;;;;12.93;74.45;98099.63;5055730;28;20071;-57
2022/11/02 12:07:11;;;;;;;11.20;1.50;;;;;;;12.79;71.13;98093.69;5063742;28;20539;-58
2022/11/02 12:09:50;;;;;;;;;;;;;;;12.84;71.40;98093.78;5064932;28;20436;-59
2022/11/02 12:12:42;;;;;;;5.30;1.10;;;;;;;12.82;69.73;98093.19;5051943;28;19977;-58
2022/11/02 12:15:46;;;;;;;12.10;1.73;;;;;;;13.01;71.41;98088.31;5063522;28;20123;-58